Time;durP1;ratioP1;P1;durP2;ratioP2;P2;SDS_P1;SDS_P2;PMS_P1;PMS_P2;Temp;Humidity;BMP_temperature;BMP_pressure;BME280_temperature;BME280_humidity;BME280_pressure;Samples;Min_cycle;Max_cycle;Signal;HPM_P1;HPM_P2
2022/11/16 00:01:23;;;;;;;21.38;11.45;;;;;;;;;;5142180;27;20047;-78
2022/11/16 00:03:51;;;;;;;18.63;11.50;;;;;;;;;;5137447;27;20062;-78
2022/11/16 00:06:19;;;;;;;23.42;12.73;;;;;;;;;;5145942;27;20047;-78
2022/11/16 00:11:34;;;;;;;25.85;11.88;;;;;;;;;;5145335;27;20051;-77
2022/11/16 00:14:02;;;;;;;22.55;12.85;;;;;;;;;;5123453;27;20101;-78
2022/11/16 00:16:32;;;;;;;22.75;12.77;;;;;;;;;;5138626;27;20047;-77
2022/11/16 00:19:01;;;;;;;25.67;13.27;;;;;;;;;;5134011;27;20056;-77
2022/11/16 00:21:29;;;;;;;29.33;13.93;;;;;;;;;;5116415;27;20112;-78
2022/11/16 00:23:57;;;;;;;22.27;12.90;;;;;;;;;;5128101;27;20054;-78
2022/11/16 00:26:28;;;;;;;23.77;13.05;;;;;;;;;;5122279;27;20069;-77
2022/11/16 00:28:56;;;;;;;25.83;12.65;;;;;;;;;;5138452;27;20054;-77
2022/11/16 00:31:23;;;;;;;24.83;13.40;;;;;;;;;;5122388;27;20051;-77
2022/11/16 00:33:51;;;;;;;22.70;13.48;;;;;;;;;;5139048;27;20077;-77
2022/11/16 00:36:19;;;;;;;25.30;13.68;;;;;;;;;;5145984;27;20101;-77
2022/11/16 00:38:46;;;;;;;25.50;13.48;;;;;;;;;;5145496;27;21004;-77
2022/11/16 00:41:13;;;;;;;29.00;14.40;;;;;;;;;;5139348;27;20062;-79
2022/11/16 00:43:41;;;;;;;28.98;13.35;;;;;;;;;;5144875;27;20098;-78
2022/11/16 00:46:08;;;;;;;27.63;13.27;;;;;;;;;;5135447;27;20977;-77
2022/11/16 00:48:35;;;;;;;24.08;13.00;;;;;;;;;;5142481;27;20796;-78
2022/11/16 00:51:03;;;;;;;21.92;13.27;;;;;;;;;;5139880;27;20518;-77
2022/11/16 00:53:30;;;;;;;27.13;13.50;;;;;;;;;;5137733;27;20215;-77
2022/11/16 00:55:58;;;;;;;24.55;13.25;;;;;;;;;;5135374;27;20047;-78
2022/11/16 00:58:25;;;;;;;24.48;13.32;;;;;;;;;;5141730;27;20589;-78
2022/11/16 01:00:53;;;;;;;25.35;12.75;;;;;;;;;;5142517;27;20043;-78
2022/11/16 01:03:20;;;;;;;23.88;13.38;;;;;;;;;;5145137;27;20055;-78
2022/11/16 01:05:47;;;;;;;26.95;14.32;;;;;;;;;;5142350;27;20047;-77
2022/11/16 01:08:14;;;;;;;24.58;13.70;;;;;;;;;;5143600;27;20039;-78
2022/11/16 01:10:42;;;;;;;27.48;13.02;;;;;;;;;;5134785;27;20047;-77
2022/11/16 01:13:10;;;;;;;26.23;13.23;;;;;;;;;;5136988;27;20936;-78
2022/11/16 01:15:37;;;;;;;32.85;14.40;;;;;;;;;;5140691;27;20047;-78
2022/11/16 01:18:05;;;;;;;25.60;13.57;;;;;;;;;;5145008;27;20083;-78
2022/11/16 01:20:32;;;;;;;26.38;13.75;;;;;;;;;;5135607;27;20048;-78
2022/11/16 01:22:59;;;;;;;28.67;14.27;;;;;;;;;;5120713;27;20048;-78
2022/11/16 01:25:26;;;;;;;23.73;14.10;;;;;;;;;;5122922;27;20095;-77
2022/11/16 01:27:55;;;;;;;26.90;14.27;;;;;;;;;;5122458;27;20078;-78
2022/11/16 01:30:23;;;;;;;27.05;14.65;;;;;;;;;;5128773;27;20052;-78
2022/11/16 01:32:53;;;;;;;26.90;13.95;;;;;;;;;;5115433;27;20105;-78
2022/11/16 01:35:20;;;;;;;29.73;14.07;;;;;;;;;;5125470;27;20054;-78
2022/11/16 01:37:48;;;;;;;28.05;13.48;;;;;;;;;;5128424;27;20052;-79
2022/11/16 01:40:15;;;;;;;26.55;14.43;;;;;;;;;;5131177;27;20059;-78
2022/11/16 01:42:42;;;;;;;25.50;13.90;;;;;;;;;;5118494;27;20138;-78
2022/11/16 01:45:21;;;;;;;25.58;12.95;;;;;;;;;;5119248;27;20056;-78
2022/11/16 01:47:48;;;;;;;31.98;13.23;;;;;;;;;;5119463;27;20052;-78
2022/11/16 01:50:17;;;;;;;23.50;12.23;;;;;;;;;;5115107;27;20107;-78
2022/11/16 01:52:47;;;;;;;28.90;12.43;;;;;;;;;;5128261;27;20057;-78
2022/11/16 01:55:15;;;;;;;26.52;13.38;;;;;;;;;;5116209;27;20077;-78
2022/11/16 01:57:43;;;;;;;25.27;12.60;;;;;;;;;;5118610;27;20044;-78
2022/11/16 02:00:11;;;;;;;27.63;13.00;;;;;;;;;;5107268;27;20098;-79
2022/11/16 02:02:39;;;;;;;26.55;12.43;;;;;;;;;;5126764;27;20074;-78
2022/11/16 02:05:06;;;;;;;23.48;12.27;;;;;;;;;;5125021;27;21065;-78
2022/11/16 02:10:49;;;;;;;26.40;12.07;;;;;;;;;;5118528;27;20146;-78
2022/11/16 02:13:26;;;;;;;20.98;11.98;;;;;;;;;;5120535;27;20051;-78
2022/11/16 02:16:04;;;;;;;27.05;11.80;;;;;;;;;;5120155;27;20051;-78
2022/11/16 02:18:31;;;;;;;25.92;11.93;;;;;;;;;;5125422;27;20140;-79
2022/11/16 02:21:29;;;;;;;26.15;12.02;;;;;;;;;;5106576;27;20058;-78
2022/11/16 02:23:56;;;;;;;26.58;11.38;;;;;;;;;;5036751;27;20053;-79
2022/11/16 02:26:36;;;;;;;24.15;11.48;;;;;;;;;;5119987;27;20127;-78
2022/11/16 02:29:06;;;;;;;22.05;11.73;;;;;;;;;;5121615;27;20146;-79
2022/11/16 02:31:36;;;;;;;20.92;12.15;;;;;;;;;;5130247;27;20101;-79
2022/11/16 02:34:05;;;;;;;24.48;13.02;;;;;;;;;;5119814;27;20056;-80
2022/11/16 02:36:34;;;;;;;24.45;12.13;;;;;;;;;;5115055;27;20056;-78
2022/11/16 02:39:07;;;;;;;19.95;11.38;;;;;;;;;;5126538;27;20048;-80
2022/11/16 02:41:36;;;;;;;24.98;11.18;;;;;;;;;;5124005;27;20101;-78
2022/11/16 02:44:08;;;;;;;26.40;11.57;;;;;;;;;;5121349;27;20177;-78
2022/11/16 02:46:39;;;;;;;23.75;11.43;;;;;;;;;;5125006;27;20058;-78
2022/11/16 02:49:09;;;;;;;24.42;11.55;;;;;;;;;;5118524;27;20052;-79
2022/11/16 02:51:38;;;;;;;29.75;11.52;;;;;;;;;;5116322;27;20056;-79
2022/11/16 02:54:11;;;;;;;26.08;11.05;;;;;;;;;;5110085;27;20058;-78
2022/11/16 02:56:41;;;;;;;20.73;10.75;;;;;;;;;;5107261;27;20059;-78
2022/11/16 02:59:10;;;;;;;25.08;11.13;;;;;;;;;;5117402;27;20055;-78
2022/11/16 03:01:46;;;;;;;19.40;10.55;;;;;;;;;;5123349;27;20180;-78
2022/11/16 03:04:13;;;;;;;24.42;10.82;;;;;;;;;;5124832;27;20200;-78
2022/11/16 03:06:42;;;;;;;44.78;12.55;;;;;;;;;;5132406;27;20047;-79
2022/11/16 03:09:12;;;;;;;36.28;11.63;;;;;;;;;;5109499;28;20135;-78
2022/11/16 03:11:58;;;;;;;31.52;12.00;;;;;;;;;;5109812;27;20051;-79
2022/11/16 03:14:35;;;;;;;19.02;10.73;;;;;;;;;;5128448;27;20055;-79
2022/11/16 03:17:05;;;;;;;20.23;11.23;;;;;;;;;;5127516;27;20082;-78
2022/11/16 03:19:43;;;;;;;27.48;11.40;;;;;;;;;;5117028;27;20056;-79
2022/11/16 03:22:19;;;;;;;21.00;10.98;;;;;;;;;;5139018;27;20055;-78
2022/11/16 03:24:47;;;;;;;21.45;11.32;;;;;;;;;;5143951;27;20050;-78
2022/11/16 03:27:17;;;;;;;27.25;12.45;;;;;;;;;;5148615;27;20832;-79
2022/11/16 03:29:44;;;;;;;24.45;12.50;;;;;;;;;;5142283;27;20051;-79
2022/11/16 03:32:19;;;;;;;21.15;11.77;;;;;;;;;;5136449;27;20518;-78
2022/11/16 03:34:59;;;;;;;25.77;11.82;;;;;;;;;;5132522;27;20048;-78
2022/11/16 03:37:29;;;;;;;35.75;12.93;;;;;;;;;;5145989;27;20117;-78
2022/11/16 03:39:59;;;;;;;44.00;11.98;;;;;;;;;;5140080;27;20819;-79
2022/11/16 03:42:27;;;;;;;39.90;12.35;;;;;;;;;;5143896;27;20081;-79
2022/11/16 03:44:55;;;;;;;14.00;9.18;;;;;;;;;;5147497;27;20047;-79
2022/11/16 03:47:22;;;;;;;25.75;10.57;;;;;;;;;;5147212;27;20051;-79
2022/11/16 03:49:51;;;;;;;21.33;9.88;;;;;;;;;;5130703;27;20048;-79
2022/11/16 03:52:18;;;;;;;15.93;9.02;;;;;;;;;;5151517;27;20047;-79
2022/11/16 03:54:45;;;;;;;36.60;9.98;;;;;;;;;;5147756;27;20055;-79
2022/11/16 03:57:17;;;;;;;40.25;10.35;;;;;;;;;;5147360;27;20071;-79
2022/11/16 03:59:45;;;;;;;21.48;9.57;;;;;;;;;;5141671;27;20046;-79
2022/11/16 04:02:12;;;;;;;23.88;9.52;;;;;;;;;;5136921;27;20081;-79
2022/11/16 04:24:34;;;;;;;22.15;6.88;;;;;;;;;;5139243;27;20067;-79
2022/11/16 04:29:55;;;;;;;25.42;7.38;;;;;;;;;;5138510;27;20047;-79
2022/11/16 04:37:56;;;;;;;22.85;6.78;;;;;;;;;;5136472;27;20075;-78
2022/11/16 04:40:28;;;;;;;24.20;6.28;;;;;;;;;;5149391;27;20047;-78
2022/11/16 04:42:57;;;;;;;24.33;6.38;;;;;;;;;;5144369;27;20105;-79
2022/11/16 04:48:11;;;;;;;29.92;6.32;;;;;;;;;;5138298;27;20448;-79
2022/11/16 04:50:39;;;;;;;25.52;6.65;;;;;;;;;;5135514;27;20123;-78
2022/11/16 04:53:07;;;;;;;20.00;6.22;;;;;;;;;;5147977;27;20055;-79
2022/11/16 04:55:35;;;;;;;28.88;6.43;;;;;;;;;;5145837;27;20137;-79
2022/11/16 04:58:02;;;;;;;19.40;5.55;;;;;;;;;;5126064;27;20055;-80
2022/11/16 05:00:29;;;;;;;20.30;5.80;;;;;;;;;;5137366;27;20044;-78
2022/11/16 05:02:57;;;;;;;34.67;6.72;;;;;;;;;;5128155;27;20052;-78
2022/11/16 05:05:28;;;;;;;23.27;5.95;;;;;;;;;;5147623;27;20058;-78
2022/11/16 05:07:55;;;;;;;30.85;6.50;;;;;;;;;;5139679;27;20044;-79
2022/11/16 05:10:22;;;;;;;27.45;6.22;;;;;;;;;;5135966;27;20047;-78
2022/11/16 05:12:51;;;;;;;25.02;6.32;;;;;;;;;;5144775;27;20071;-78
2022/11/16 05:15:19;;;;;;;24.88;6.20;;;;;;;;;;5145832;27;20046;-78
2022/11/16 05:17:47;;;;;;;20.90;5.85;;;;;;;;;;5142669;27;20069;-79
2022/11/16 05:23:03;;;;;;;21.77;5.78;;;;;;;;;;5144834;27;20051;-78
2022/11/16 05:25:33;;;;;;;18.33;6.00;;;;;;;;;;5131627;27;20051;-78
2022/11/16 05:28:03;;;;;;;17.88;6.35;;;;;;;;;;5139380;27;20055;-78
2022/11/16 05:30:30;;;;;;;19.35;5.90;;;;;;;;;;5141826;27;20055;-78
2022/11/16 05:32:58;;;;;;;25.05;6.43;;;;;;;;;;5145216;27;20052;-78
2022/11/16 05:35:25;;;;;;;22.27;6.38;;;;;;;;;;5126986;27;21268;-78
2022/11/16 05:38:02;;;;;;;29.35;7.63;;;;;;;;;;5140021;27;20051;-79
2022/11/16 05:40:31;;;;;;;23.15;6.15;;;;;;;;;;5143990;27;20509;-79
2022/11/16 05:42:59;;;;;;;41.05;7.28;;;;;;;;;;5134726;27;20135;-79
2022/11/16 05:45:28;;;;;;;29.77;6.75;;;;;;;;;;5139362;27;20055;-77
2022/11/16 05:47:55;;;;;;;22.02;6.53;;;;;;;;;;5136712;27;20043;-77
2022/11/16 05:50:25;;;;;;;22.80;7.60;;;;;;;;;;5141652;27;20047;-77
2022/11/16 05:52:55;;;;;;;44.47;8.50;;;;;;;;;;5135197;27;20051;-77
2022/11/16 05:55:22;;;;;;;42.95;10.30;;;;;;;;;;5139451;27;20054;-78
2022/11/16 05:57:49;;;;;;;33.03;10.48;;;;;;;;;;5140584;27;21418;-78
2022/11/16 06:00:17;;;;;;;29.67;11.75;;;;;;;;;;5145119;27;20079;-78
2022/11/16 06:02:44;;;;;;;53.67;11.48;;;;;;;;;;5145433;27;20047;-78
2022/11/16 06:05:12;;;;;;;46.75;11.73;;;;;;;;;;5139294;27;20055;-78
2022/11/16 06:07:39;;;;;;;53.13;13.50;;;;;;;;;;5146293;27;20151;-78
2022/11/16 06:10:06;;;;;;;42.55;13.05;;;;;;;;;;5147833;27;20047;-78
2022/11/16 06:12:33;;;;;;;57.25;14.05;;;;;;;;;;5144420;27;20077;-78
2022/11/16 06:15:04;;;;;;;75.95;14.60;;;;;;;;;;5142667;27;20104;-78
2022/11/16 06:17:32;;;;;;;73.57;13.35;;;;;;;;;;5141271;27;20051;-78
2022/11/16 06:20:02;;;;;;;66.57;13.38;;;;;;;;;;5143821;27;20062;-78
2022/11/16 06:22:30;;;;;;;87.82;14.25;;;;;;;;;;5147653;27;20130;-78
2022/11/16 06:24:57;;;;;;;65.53;13.50;;;;;;;;;;5126325;27;20631;-78
2022/11/16 06:27:24;;;;;;;91.82;14.77;;;;;;;;;;5147961;27;20059;-77
2022/11/16 06:29:52;;;;;;;90.85;14.27;;;;;;;;;;5128834;27;20051;-78
2022/11/16 06:32:19;;;;;;;52.40;13.10;;;;;;;;;;5141478;27;20713;-78
2022/11/16 06:34:46;;;;;;;79.80;14.05;;;;;;;;;;5142436;27;20051;-78
2022/11/16 06:37:14;;;;;;;72.55;13.85;;;;;;;;;;5140245;27;20047;-79
2022/11/16 06:39:43;;;;;;;100.43;15.48;;;;;;;;;;5126727;27;20055;-78
2022/11/16 06:42:11;;;;;;;52.85;13.00;;;;;;;;;;5142208;27;20048;-78
2022/11/16 06:44:38;;;;;;;50.78;11.98;;;;;;;;;;5128909;27;20054;-78
2022/11/16 06:47:05;;;;;;;50.70;12.07;;;;;;;;;;5135807;27;20112;-78
2022/11/16 06:49:33;;;;;;;63.45;13.98;;;;;;;;;;5125343;27;20044;-78
2022/11/16 06:52:04;;;;;;;39.33;11.90;;;;;;;;;;5139518;27;20408;-78
2022/11/16 06:54:34;;;;;;;42.00;11.35;;;;;;;;;;5138899;27;20058;-78
2022/11/16 06:57:01;;;;;;;76.95;12.75;;;;;;;;;;5139355;27;20059;-78
2022/11/16 06:59:29;;;;;;;23.25;9.32;;;;;;;;;;5135404;27;20499;-78
2022/11/16 07:01:56;;;;;;;44.85;10.98;;;;;;;;;;5123509;27;20044;-78
2022/11/16 07:04:23;;;;;;;47.67;11.48;;;;;;;;;;5140340;27;20067;-78
2022/11/16 07:06:54;;;;;;;39.78;9.95;;;;;;;;;;5134118;27;20048;-78
2022/11/16 07:09:22;;;;;;;30.05;9.80;;;;;;;;;;5136973;27;20123;-78
2022/11/16 07:11:49;;;;;;;48.95;10.68;;;;;;;;;;5142883;27;20043;-78
2022/11/16 07:14:17;;;;;;;39.33;9.25;;;;;;;;;;5136729;27;20051;-78
2022/11/16 07:16:44;;;;;;;38.80;8.75;;;;;;;;;;5140508;27;20075;-77
2022/11/16 07:19:12;;;;;;;69.95;10.73;;;;;;;;;;5136110;27;20476;-78
2022/11/16 07:21:39;;;;;;;37.20;9.15;;;;;;;;;;5137269;27;20962;-78
2022/11/16 07:24:07;;;;;;;26.23;8.75;;;;;;;;;;5149406;27;20072;-78
2022/11/16 07:26:35;;;;;;;29.80;8.57;;;;;;;;;;5141225;27;20047;-78
2022/11/16 07:29:02;;;;;;;39.35;9.07;;;;;;;;;;5140065;27;20507;-78
2022/11/16 07:31:31;;;;;;;28.42;8.65;;;;;;;;;;5142874;27;20597;-77
2022/11/16 07:33:58;;;;;;;38.83;8.73;;;;;;;;;;5127484;27;20052;-78
2022/11/16 07:36:25;;;;;;;24.88;9.77;;;;;;;;;;5121460;27;20146;-78
2022/11/16 07:38:56;;;;;;;23.92;7.82;;;;;;;;;;5135929;27;20055;-77
2022/11/16 07:41:23;;;;;;;24.25;7.63;;;;;;;;;;5122569;27;20529;-77
2022/11/16 07:43:51;;;;;;;22.30;6.82;;;;;;;;;;5122669;27;20099;-78
2022/11/16 07:46:20;;;;;;;25.00;6.80;;;;;;;;;;5136870;27;20921;-78
2022/11/16 07:49:11;;;;;;;26.73;7.05;;;;;;;;;;5142752;27;20055;-78
2022/11/16 07:51:38;;;;;;;21.67;6.00;;;;;;;;;;5149833;27;20130;-78
2022/11/16 07:54:05;;;;;;;17.33;5.22;;;;;;;;;;5133315;27;20128;-77
2022/11/16 07:56:33;;;;;;;45.17;7.78;;;;;;;;;;5135645;27;20074;-77
2022/11/16 07:59:04;;;;;;;19.48;5.82;;;;;;;;;;5141868;27;20043;-78
2022/11/16 08:01:32;;;;;;;19.88;5.70;;;;;;;;;;5122470;27;20051;-78
2022/11/16 08:04:02;;;;;;;20.38;5.32;;;;;;;;;;5136584;27;20048;-78
2022/11/16 08:06:31;;;;;;;22.83;4.60;;;;;;;;;;5135072;27;20059;-78
2022/11/16 08:09:03;;;;;;;26.60;4.80;;;;;;;;;;5136365;27;20048;-78
2022/11/16 08:11:33;;;;;;;14.75;4.65;;;;;;;;;;5136431;27;20135;-78
2022/11/16 08:14:01;;;;;;;13.07;4.88;;;;;;;;;;5134815;27;20063;-78
2022/11/16 08:16:31;;;;;;;12.60;4.22;;;;;;;;;;5143500;27;20051;-78
2022/11/16 08:19:02;;;;;;;23.30;5.65;;;;;;;;;;5137739;27;20897;-77
2022/11/16 08:21:32;;;;;;;15.02;4.47;;;;;;;;;;5132520;27;20071;-78
2022/11/16 08:24:03;;;;;;;14.88;5.28;;;;;;;;;;5147800;27;20062;-78
2022/11/16 08:26:30;;;;;;;18.80;5.30;;;;;;;;;;5125659;27;20057;-78
2022/11/16 08:28:57;;;;;;;22.35;6.00;;;;;;;;;;5144133;27;20047;-78
2022/11/16 08:31:26;;;;;;;21.55;6.03;;;;;;;;;;5146179;27;20526;-77
2022/11/16 08:33:53;;;;;;;19.15;5.88;;;;;;;;;;5137797;27;20100;-78
2022/11/16 08:36:20;;;;;;;21.35;5.80;;;;;;;;;;5139068;27;20047;-77
2022/11/16 08:38:49;;;;;;;10.80;5.68;;;;;;;;;;5147526;27;20104;-77
2022/11/16 08:41:17;;;;;;;19.77;5.93;;;;;;;;;;5137493;27;20051;-78
2022/11/16 08:43:46;;;;;;;14.27;5.00;;;;;;;;;;5141057;27;20073;-78
2022/11/16 08:46:13;;;;;;;13.82;5.53;;;;;;;;;;5115382;27;20155;-77
2022/11/16 08:48:41;;;;;;;22.80;5.70;;;;;;;;;;5112204;27;20059;-77
2022/11/16 08:51:10;;;;;;;17.58;5.38;;;;;;;;;;5121346;27;20059;-77
2022/11/16 08:53:47;;;;;;;19.30;5.40;;;;;;;;;;5125168;27;20054;-77
2022/11/16 08:56:29;;;;;;;14.48;4.47;;;;;;;;;;5138418;27;20059;-78
2022/11/16 08:58:59;;;;;;;12.45;4.78;;;;;;;;;;5137884;27;20098;-77
2022/11/16 09:01:29;;;;;;;14.50;4.57;;;;;;;;;;5123091;27;20566;-78
2022/11/16 09:03:58;;;;;;;17.77;4.53;;;;;;;;;;5140817;27;20059;-78
2022/11/16 09:06:27;;;;;;;16.52;4.85;;;;;;;;;;5125978;27;20051;-78
2022/11/16 09:08:58;;;;;;;16.15;4.20;;;;;;;;;;5137236;27;20080;-78
2022/11/16 09:11:28;;;;;;;14.55;4.25;;;;;;;;;;5135842;27;20078;-77
2022/11/16 09:13:55;;;;;;;14.52;3.47;;;;;;;;;;5136711;27;20055;-78
2022/11/16 09:16:23;;;;;;;16.77;4.10;;;;;;;;;;5143368;27;20047;-78
2022/11/16 09:18:51;;;;;;;16.73;3.90;;;;;;;;;;5116401;27;21691;-78
2022/11/16 09:21:26;;;;;;;11.30;3.42;;;;;;;;;;5126020;27;20768;-78
2022/11/16 09:23:53;;;;;;;17.50;4.32;;;;;;;;;;5143685;27;20052;-77
2022/11/16 09:26:22;;;;;;;10.40;3.40;;;;;;;;;;5138574;27;20045;-78
2022/11/16 09:28:54;;;;;;;12.65;3.22;;;;;;;;;;5139343;27;20105;-77
2022/11/16 09:31:22;;;;;;;;;;;;;;;;;;5136770;27;20043;-77
2022/11/16 09:33:52;;;;;;;19.92;3.60;;;;;;;;;;5132462;27;44518;-77
2022/11/16 09:36:20;;;;;;;11.75;3.70;;;;;;;;;;5139876;27;20116;-77
2022/11/16 09:38:47;;;;;;;7.43;3.13;;;;;;;;;;5124466;27;20054;-78
2022/11/16 09:41:37;;;;;;;11.73;3.00;;;;;;;;;;5144576;27;20749;-77
2022/11/16 09:44:11;;;;;;;10.55;3.40;;;;;;;;;;5141873;27;20132;-77
2022/11/16 09:46:49;;;;;;;13.02;3.00;;;;;;;;;;5140323;27;20046;-77
2022/11/16 09:49:18;;;;;;;17.95;2.88;;;;;;;;;;5136334;27;20100;-77
2022/11/16 09:51:48;;;;;;;14.20;3.10;;;;;;;;;;5138773;27;20112;-78
2022/11/16 09:54:17;;;;;;;16.48;3.30;;;;;;;;;;5143057;27;20138;-77
2022/11/16 09:56:49;;;;;;;17.25;3.63;;;;;;;;;;5150584;27;20146;-77
2022/11/16 09:59:31;;;;;;;15.73;2.90;;;;;;;;;;5142608;27;20380;-76
2022/11/16 10:02:14;;;;;;;7.13;2.40;;;;;;;;;;5112899;27;20572;-76
2022/11/16 10:04:47;;;;;;;10.77;2.72;;;;;;;;;;5123689;27;20048;-77
2022/11/16 10:07:33;;;;;;;10.38;2.47;;;;;;;;;;5140872;27;20085;-76
2022/11/16 10:10:03;;;;;;;9.45;2.85;;;;;;;;;;5140869;27;20052;-76
2022/11/16 10:12:33;;;;;;;13.60;3.20;;;;;;;;;;5148163;27;20814;-77
2022/11/16 10:15:05;;;;;;;9.75;2.50;;;;;;;;;;5148031;27;20822;-77
2022/11/16 10:17:51;;;;;;;9.23;2.28;;;;;;;;;;5142844;27;20046;-77
2022/11/16 10:20:37;;;;;;;10.65;2.65;;;;;;;;;;5119219;27;20052;-76
2022/11/16 10:23:23;;;;;;;10.10;3.00;;;;;;;;;;5128169;27;20775;-77
2022/11/16 10:25:53;;;;;;;8.43;2.22;;;;;;;;;;5140585;27;20047;-77
2022/11/16 10:28:49;;;;;;;8.57;1.98;;;;;;;;;;5137438;27;20077;-77
2022/11/16 10:31:35;;;;;;;5.15;2.13;;;;;;;;;;5137934;27;20062;-77
2022/11/16 10:34:02;;;;;;;5.85;2.25;;;;;;;;;;5139575;27;20141;-77
2022/11/16 10:36:34;;;;;;;10.18;2.30;;;;;;;;;;5146405;27;20137;-77
2022/11/16 10:39:10;;;;;;;9.55;2.38;;;;;;;;;;5138463;27;20062;-77
2022/11/16 10:41:40;;;;;;;9.70;2.17;;;;;;;;;;5144969;27;20054;-77
2022/11/16 10:44:17;;;;;;;10.93;2.33;;;;;;;;;;5139809;27;20048;-77
2022/11/16 10:46:56;;;;;;;8.88;2.42;;;;;;;;;;5143222;27;20052;-76
2022/11/16 10:49:44;;;;;;;9.70;2.17;;;;;;;;;;5133604;27;20138;-77
2022/11/16 10:52:12;;;;;;;12.25;2.50;;;;;;;;;;5126696;27;20074;-77
2022/11/16 10:54:39;;;;;;;7.93;2.03;;;;;;;;;;5141363;27;20055;-77
2022/11/16 10:57:12;;;;;;;9.10;2.28;;;;;;;;;;5139459;27;20055;-77
2022/11/16 10:59:45;;;;;;;14.00;2.30;;;;;;;;;;5143143;27;20492;-77
2022/11/16 11:02:21;;;;;;;8.85;2.38;;;;;;;;;;5132645;27;20055;-77
2022/11/16 11:05:01;;;;;;;8.10;1.83;;;;;;;;;;5114708;27;20478;-76
2022/11/16 11:07:38;;;;;;;8.02;2.00;;;;;;;;;;5136341;27;20634;-76
2022/11/16 11:10:26;;;;;;;7.40;2.00;;;;;;;;;;5126905;27;20109;-76
2022/11/16 11:13:14;;;;;;;11.77;2.65;;;;;;;;;;5140360;27;20054;-76
2022/11/16 11:15:44;;;;;;;5.90;2.15;;;;;;;;;;5149862;27;20047;-78
2022/11/16 11:18:18;;;;;;;7.93;2.10;;;;;;;;;;5129164;27;20052;-77
2022/11/16 11:20:49;;;;;;;10.10;2.30;;;;;;;;;;5135917;27;20059;-76
2022/11/16 11:23:24;;;;;;;13.07;2.42;;;;;;;;;;5122149;27;20696;-77
2022/11/16 11:25:53;;;;;;;8.68;1.92;;;;;;;;;;5123886;27;20047;-77
2022/11/16 11:28:31;;;;;;;9.75;2.00;;;;;;;;;;5136855;27;20443;-77
2022/11/16 11:31:07;;;;;;;6.80;1.70;;;;;;;;;;5130239;27;20051;-76
2022/11/16 11:33:36;;;;;;;12.65;2.47;;;;;;;;;;5135006;27;20467;-77
2022/11/16 11:36:04;;;;;;;13.18;1.95;;;;;;;;;;5114089;27;20075;-77
2022/11/16 11:38:34;;;;;;;5.30;1.90;;;;;;;;;;5142247;27;20504;-77
2022/11/16 11:41:04;;;;;;;10.63;2.03;;;;;;;;;;5142767;27;20082;-76
2022/11/16 11:43:32;;;;;;;9.60;2.03;;;;;;;;;;5126987;27;20139;-77
2022/11/16 11:46:08;;;;;;;5.25;1.95;;;;;;;;;;5140869;27;20052;-77
2022/11/16 11:48:46;;;;;;;8.95;1.95;;;;;;;;;;5135349;27;20091;-76
2022/11/16 11:51:16;;;;;;;14.85;2.38;;;;;;;;;;5139496;27;20055;-76
2022/11/16 11:53:51;;;;;;;9.57;2.40;;;;;;;;;;5135692;27;20051;-77
2022/11/16 11:56:19;;;;;;;6.60;1.65;;;;;;;;;;5138615;27;20062;-76
2022/11/16 11:58:47;;;;;;;8.07;1.80;;;;;;;;;;5136020;27;20051;-76
2022/11/16 12:01:23;;;;;;;9.43;1.67;;;;;;;;;;5142789;27;20048;-76
2022/11/16 12:04:30;;;;;;;10.18;2.17;;;;;;;;;;5142696;27;20139;-76
2022/11/16 12:07:15;;;;;;;10.70;1.55;;;;;;;;;;5044151;28;20049;-77
2022/11/16 12:09:49;;;;;;;6.95;1.85;;;;;;;;;;5037402;28;20112;-76
2022/11/16 12:12:19;;;;;;;7.63;1.95;;;;;;;;;;5043822;28;20053;-76
2022/11/16 12:15:02;;;;;;;7.13;1.63;;;;;;;;;;5043414;28;20041;-77
2022/11/16 12:17:44;;;;;;;7.95;1.75;;;;;;;;;;5040173;28;20045;-77
2022/11/16 12:20:16;;;;;;;9.93;1.88;;;;;;;;;;5041625;28;20057;-76
2022/11/16 12:22:49;;;;;;;9.80;1.45;;;;;;;;;;5041123;28;20050;-76
2022/11/16 12:25:20;;;;;;;12.43;2.05;;;;;;;;;;5032886;28;20585;-77
2022/11/16 12:27:53;;;;;;;4.88;1.60;;;;;;;;;;5035395;28;20053;-76
2022/11/16 12:30:21;;;;;;;11.80;2.00;;;;;;;;;;5038717;28;20156;-76
2022/11/16 12:32:54;;;;;;;9.23;1.83;;;;;;;;;;5044235;28;20139;-76
2022/11/16 12:35:42;;;;;;;8.82;1.88;;;;;;;;;;5042634;28;20049;-76
2022/11/16 12:38:26;;;;;;;5.13;1.73;;;;;;;;;;5077177;27;20062;-76
2022/11/16 12:41:12;;;;;;;10.45;2.28;;;;;;;;;;5113334;27;20079;-76
2022/11/16 12:43:54;;;;;;;7.53;1.50;;;;;;;;;;5135121;27;20051;-76
2022/11/16 12:46:34;;;;;;;7.97;1.70;;;;;;;;;;5148475;27;20145;-76
2022/11/16 12:49:21;;;;;;;4.15;1.27;;;;;;;;;;5136468;27;20083;-76
2022/11/16 12:51:50;;;;;;;4.78;1.30;;;;;;;;;;5141053;27;20051;-76
2022/11/16 12:54:21;;;;;;;6.90;1.42;;;;;;;;;;5140059;27;20052;-76
2022/11/16 12:57:06;;;;;;;8.55;1.92;;;;;;;;;;5134848;27;20048;-76
2022/11/16 12:59:36;;;;;;;7.95;1.50;;;;;;;;;;5132558;27;20048;-76
2022/11/16 13:02:09;;;;;;;8.57;2.25;;;;;;;;;;5135726;27;20137;-76
2022/11/16 13:04:36;;;;;;;;;;;;;;;;;;5139826;27;20052;-76
2022/11/16 13:07:15;;;;;;;8.15;1.48;;;;;;;;;;5132351;27;43681;-76
2022/11/16 13:09:44;;;;;;;5.40;1.30;;;;;;;;;;5134268;27;20074;-76
2022/11/16 13:12:19;;;;;;;6.57;1.45;;;;;;;;;;5122612;27;20051;-76
2022/11/16 13:14:47;;;;;;;7.55;1.48;;;;;;;;;;5143892;27;20043;-75
2022/11/16 13:17:20;;;;;;;5.28;1.45;;;;;;;;;;5142235;27;20157;-76
2022/11/16 13:20:06;;;;;;;9.35;1.38;;;;;;;;;;5139966;27;20099;-76
2022/11/16 13:22:45;;;;;;;7.45;1.40;;;;;;;;;;5143312;27;20048;-76
2022/11/16 13:25:39;;;;;;;8.60;1.48;;;;;;;;;;5127169;27;20058;-77
2022/11/16 13:28:12;;;;;;;5.47;2.22;;;;;;;;;;5125708;27;20063;-76
2022/11/16 13:30:57;;;;;;;8.88;1.70;;;;;;;;;;5120985;27;20048;-76
2022/11/16 13:33:30;;;;;;;10.43;1.67;;;;;;;;;;5135361;27;20066;-77
2022/11/16 13:35:58;;;;;;;6.80;1.50;;;;;;;;;;5124694;27;20842;-76
2022/11/16 13:38:52;;;;;;;8.25;1.90;;;;;;;;;;5131496;27;20843;-76
2022/11/16 13:41:29;;;;;;;12.15;2.08;;;;;;;;;;5144086;27;20047;-76
2022/11/16 13:44:03;;;;;;;5.88;1.48;;;;;;;;;;5149352;27;20112;-76
2022/11/16 13:46:58;;;;;;;5.65;1.42;;;;;;;;;;5126016;27;20971;-76
2022/11/16 13:49:33;;;;;;;4.15;1.40;;;;;;;;;;5138430;27;20052;-77
2022/11/16 13:52:05;;;;;;;10.80;1.83;;;;;;;;;;5145843;27;20055;-76
2022/11/16 13:54:51;;;;;;;4.85;1.17;;;;;;;;;;5141649;27;20050;-76
2022/11/16 13:57:22;;;;;;;10.02;1.52;;;;;;;;;;5132756;27;20100;-76
2022/11/16 13:59:54;;;;;;;8.45;1.58;;;;;;;;;;5143092;27;20059;-76
2022/11/16 14:02:32;;;;;;;9.27;1.50;;;;;;;;;;5130972;27;20054;-76
2022/11/16 14:05:03;;;;;;;7.07;1.40;;;;;;;;;;5139594;27;20047;-75
2022/11/16 14:07:35;;;;;;;4.88;1.45;;;;;;;;;;5147951;27;20109;-76
2022/11/16 14:10:04;;;;;;;9.38;1.90;;;;;;;;;;5135777;27;20048;-76
2022/11/16 14:12:37;;;;;;;6.97;1.52;;;;;;;;;;5141556;27;20752;-76
2022/11/16 14:15:05;;;;;;;;;;;;;;;;;;5130722;27;20693;-76
2022/11/16 14:18:11;;;;;;;9.80;2.00;;;;;;;;;;5143403;27;43978;-76
2022/11/16 14:20:44;;;;;;;8.98;1.85;;;;;;;;;;5061432;28;20532;-76
2022/11/16 14:23:33;;;;;;;7.82;1.80;;;;;;;;;;5065088;28;20057;-76
2022/11/16 14:26:15;;;;;;;5.40;1.30;;;;;;;;;;5056041;28;20098;-76
2022/11/16 14:29:03;;;;;;;8.98;1.70;;;;;;;;;;5066903;28;20152;-76
2022/11/16 14:31:31;;;;;;;11.52;1.70;;;;;;;;;;5054820;28;20050;-76
2022/11/16 14:34:02;;;;;;;6.68;1.55;;;;;;;;;;5059517;28;20788;-76
2022/11/16 14:36:37;;;;;;;7.40;1.42;;;;;;;;;;5059295;28;20079;-76
2022/11/16 14:39:26;;;;;;;4.78;1.33;;;;;;;;;;5064725;28;20985;-76
2022/11/16 14:41:54;;;;;;;7.88;1.63;;;;;;;;;;5043621;28;20053;-78
2022/11/16 14:44:23;;;;;;;8.43;1.50;;;;;;;;;;5068137;28;20056;-76
2022/11/16 14:46:52;;;;;;;7.03;1.48;;;;;;;;;;5064722;28;20057;-76
2022/11/16 14:49:20;;;;;;;8.48;1.63;;;;;;;;;;5065107;28;20049;-76
2022/11/16 14:51:50;;;;;;;7.20;1.52;;;;;;;;;;5103869;27;20126;-76
2022/11/16 14:54:23;;;;;;;9.00;1.83;;;;;;;;;;5138116;27;20051;-76
2022/11/16 14:56:50;;;;;;;;;;;;;;;;;;5140276;27;20838;-76
2022/11/16 14:59:17;;;;;;;6.60;1.60;;;;;;;;;;5136390;27;45153;-76
2022/11/16 15:01:44;;;;;;;6.75;1.42;;;;;;;;;;5141272;27;20153;-76
2022/11/16 15:04:15;;;;;;;7.80;1.40;;;;;;;;;;5145537;27;20059;-76
2022/11/16 15:06:48;;;;;;;8.80;2.10;;;;;;;;;;5140211;27;20645;-76
2022/11/16 15:09:29;;;;;;;10.40;1.88;;;;;;;;;;5141775;27;20047;-76
2022/11/16 15:14:48;;;;;;;11.18;1.70;;;;;;;;;;5144502;27;20137;-76
2022/11/16 15:17:17;;;;;;;11.48;1.70;;;;;;;;;;5145039;27;20058;-76
2022/11/16 15:19:55;;;;;;;6.20;1.60;;;;;;;;;;5122152;27;20047;-75
2022/11/16 15:22:26;;;;;;;4.40;1.60;;;;;;;;;;5122885;27;20061;-76
2022/11/16 15:24:58;;;;;;;6.95;1.80;;;;;;;;;;5118946;27;20080;-76
2022/11/16 15:27:32;;;;;;;7.95;2.00;;;;;;;;;;5121738;27;20047;-76
2022/11/16 15:30:14;;;;;;;5.20;1.80;;;;;;;;;;5120388;27;20048;-76
2022/11/16 15:32:42;;;;;;;9.45;1.80;;;;;;;;;;5102115;27;20939;-76
2022/11/16 15:35:36;;;;;;;6.57;1.63;;;;;;;;;;5120291;27;20059;-76
2022/11/16 15:38:29;;;;;;;6.60;1.73;;;;;;;;;;5110714;27;20113;-75
2022/11/16 15:41:01;;;;;;;7.93;2.10;;;;;;;;;;5115160;27;20082;-76